Overview Statistics Trail Chart Weather Telemetry Raw packets
 

This is the latest recevied weather packets stored in our database for station/object IQ5VK-13. If no packets are shown the sender has not sent any weather packets the latest 10 day(s).

<< 9 10 11 12 13 14 15 >>
Time Temp. Humidity Pressure Rain* Wind** Luminosity Snow
1788206567 19.44° C 92% 1021.2 hPa - - - -
1788205374 19.44° C 91% 1021.1 hPa - - - -
1788204166 20° C 91% 1020.9 hPa - - - -
1788202969 20° C 91% 1020.9 hPa - - - -
1788198170 20.56° C 87% 1020.5 hPa - - - -
1788196966 20.56° C 84% 1020.6 hPa - - - -
1788195766 22.22° C 78% 1020.6 hPa - - - -
1788194566 23.33° C 73% 1020.6 hPa - - - -
1788193365 23.89° C 70% 1020.7 hPa - - - -
1788192165 25° C 67% 1020.9 hPa - - - -
1788190965 26.11° C 63% 1020.9 hPa - - - -
1788189765 26.11° C 62% 1020.9 hPa - - - -
1788188564 26.67° C 63% 1021 hPa - - - -
1788187364 25.56° C 63% 1021 hPa - - - -
1788186164 25.56° C 66% 1021 hPa - - - -
1788184963 25° C 69% 1020.9 hPa - - - -
1788183763 24.44° C 71% 1020.9 hPa - - - -
1788182563 24.44° C 69% 1021.2 hPa - - - -
1788181365 25° C 67% 1021 hPa - - - -
1788180162 25° C 66% 1021.1 hPa - - - -
1788178963 25° C 64% 1021 hPa - - - -
1788176569 24.44° C 63% 1021.1 hPa - - - -
1788175368 25° C 61% 1021.1 hPa - - - -
1788174171 25° C 64% 1021.3 hPa - - - -
1788172967 25° C 62% 1021.2 hPa - - - -

* Rain since midnight (hover to see other rain measurements)
** Current wind speed in m/s (hover to see current wind gust speed)